createdAt,value
2018-06-04T00:00:28.093Z,17.65
2018-06-04T00:01:28.003Z,17.74
2018-06-04T00:02:27.900Z,17.65
2018-06-04T00:03:27.809Z,17.65
2018-06-04T00:04:27.718Z,17.59
2018-06-04T00:05:27.627Z,17.67
2018-06-04T00:06:27.523Z,17.60
2018-06-04T00:07:27.432Z,17.65
2018-06-04T00:08:27.344Z,17.64
2018-06-04T00:09:27.252Z,17.48
2018-06-04T00:10:27.149Z,17.65
2018-06-04T00:11:27.056Z,17.63
2018-06-04T00:12:26.977Z,17.65
2018-06-04T00:13:26.865Z,17.64
2018-06-04T00:14:26.771Z,17.51
2018-06-04T00:15:26.682Z,17.46
2018-06-04T00:16:26.590Z,17.46
2018-06-04T00:17:26.737Z,17.46
2018-06-04T00:18:26.397Z,17.52
2018-06-04T00:19:26.306Z,17.51
2018-06-04T00:20:26.203Z,17.41
2018-06-04T00:21:26.111Z,17.49
2018-06-04T00:22:26.020Z,17.52
2018-06-04T00:23:25.930Z,17.45
2018-06-04T00:24:25.826Z,17.46
2018-06-04T00:25:25.736Z,17.39
2018-06-04T00:26:25.645Z,17.36
2018-06-04T00:27:25.542Z,17.36
2018-06-04T00:28:25.450Z,17.38
2018-06-04T00:29:25.360Z,17.42
2018-06-04T00:30:25.268Z,17.41
2018-06-04T00:31:25.165Z,17.44
2018-06-04T00:32:25.074Z,17.44
2018-06-04T00:33:24.986Z,17.45
2018-06-04T00:34:24.880Z,17.39
2018-06-04T00:35:24.790Z,17.42
2018-06-04T00:36:24.698Z,17.36
2018-06-04T00:37:24.608Z,17.39
2018-06-04T00:38:24.505Z,17.38
2018-06-04T00:39:24.413Z,17.38
2018-06-04T00:40:24.323Z,17.33
2018-06-04T00:41:24.231Z,17.34
2018-06-04T00:42:24.128Z,17.33
2018-06-04T00:43:24.039Z,17.29
2018-06-04T00:44:23.946Z,17.33
2018-06-04T00:45:23.843Z,17.24
2018-06-04T00:46:23.754Z,17.30
2018-06-04T00:47:23.661Z,17.26
2018-06-04T00:48:23.559Z,17.31
2018-06-04T00:49:23.468Z,17.23
2018-06-04T00:50:23.376Z,17.23
2018-06-04T00:51:23.286Z,17.23
2018-06-04T00:52:23.183Z,17.24
2018-06-04T00:53:23.092Z,17.27
2018-06-04T00:54:23.002Z,17.19
2018-06-04T00:55:22.898Z,17.11
2018-06-04T00:56:22.806Z,17.16
2018-06-04T00:57:22.716Z,17.16
2018-06-04T00:58:22.624Z,17.19
2018-06-04T00:59:22.522Z,17.06
2018-06-04T01:00:22.433Z,17.15
2018-06-04T01:01:22.340Z,17.09
2018-06-04T01:02:22.236Z,17.08
2018-06-04T01:03:22.149Z,17.04
2018-06-04T01:04:22.055Z,17.15
2018-06-04T01:05:21.953Z,17.08
2018-06-04T01:06:21.862Z,17.09
2018-06-04T01:07:21.771Z,17.09
2018-06-04T01:08:21.680Z,17.02
2018-06-04T01:09:21.577Z,17.05
2018-06-04T01:10:21.485Z,17.06
2018-06-04T01:11:21.396Z,17.02
2018-06-04T01:12:21.294Z,16.94
2018-06-04T01:13:21.201Z,17.01
2018-06-04T01:14:21.110Z,16.94
2018-06-04T01:15:21.019Z,16.93
2018-06-04T01:16:20.916Z,16.89
2018-06-04T01:17:20.826Z,16.94
2018-06-04T01:18:20.734Z,16.96
2018-06-04T01:19:20.630Z,17.04
2018-06-04T01:20:20.541Z,16.94
2018-06-04T01:21:20.448Z,16.96
2018-06-04T01:22:20.346Z,16.91
2018-06-04T01:23:20.261Z,16.96
2018-06-04T01:24:20.164Z,16.96
2018-06-04T01:25:20.062Z,16.93
2018-06-04T01:26:19.971Z,16.91
2018-06-04T01:27:19.879Z,16.87
2018-06-04T01:28:19.790Z,16.86
2018-06-04T01:29:19.685Z,16.79
2018-06-04T01:30:19.595Z,16.76
2018-06-04T01:31:19.504Z,16.79
2018-06-04T01:32:19.401Z,16.75
2018-06-04T01:33:19.309Z,16.74
2018-06-04T01:34:19.219Z,16.76
2018-06-04T01:35:19.116Z,16.68
2018-06-04T01:36:19.024Z,16.68
2018-06-04T01:37:18.936Z,16.75
2018-06-04T01:38:18.832Z,16.71
2018-06-04T01:39:18.739Z,16.71
2018-06-04T01:40:18.650Z,16.72
2018-06-04T01:41:18.561Z,16.78
2018-06-04T01:42:18.454Z,16.74
2018-06-04T01:43:18.364Z,16.71
2018-06-04T01:44:18.273Z,16.75
2018-06-04T01:45:18.169Z,16.71
2018-06-04T01:46:18.080Z,16.75
2018-06-04T01:47:17.988Z,16.68
2018-06-04T01:48:17.885Z,16.68
2018-06-04T01:49:17.795Z,16.71
2018-06-04T01:50:17.703Z,16.65
2018-06-04T01:51:17.601Z,16.57
2018-06-04T01:52:17.512Z,16.68
2018-06-04T01:53:17.432Z,16.65
2018-06-04T01:54:17.318Z,16.53
2018-06-04T01:55:17.229Z,16.60
2018-06-04T01:56:17.133Z,16.60
2018-06-04T01:57:17.044Z,16.51
2018-06-04T01:58:16.947Z,16.43
2018-06-04T01:59:16.849Z,16.47
2018-06-04T02:00:16.761Z,16.35
2018-06-04T02:01:16.654Z,16.33
2018-06-04T02:02:16.815Z,16.28
2018-06-04T02:03:16.478Z,16.32
2018-06-04T02:04:16.371Z,16.38
2018-06-04T02:05:16.279Z,16.38
2018-06-04T02:06:16.190Z,16.31
2018-06-04T02:07:16.097Z,16.35
2018-06-04T02:08:15.994Z,16.29
2018-06-04T02:09:15.904Z,16.31
2018-06-04T02:10:15.801Z,16.33
2018-06-04T02:11:15.709Z,16.35
2018-06-04T02:12:15.624Z,16.31
2018-06-04T02:13:15.521Z,16.24
2018-06-04T02:14:15.424Z,16.28
2018-06-04T02:15:15.336Z,16.28
2018-06-04T02:16:15.231Z,16.29
2018-06-04T02:17:15.140Z,16.32
2018-06-04T02:18:15.049Z,16.26
2018-06-04T02:19:14.946Z,16.32
2018-06-04T02:20:14.854Z,16.26
2018-06-04T02:21:14.765Z,16.31
2018-06-04T02:22:14.911Z,16.23
2018-06-04T02:23:14.570Z,16.24
2018-06-04T02:24:14.479Z,16.21
2018-06-04T02:25:14.387Z,16.26
2018-06-04T02:26:14.285Z,16.26
2018-06-04T02:27:14.198Z,16.29
2018-06-04T02:28:14.103Z,16.21
2018-06-04T02:29:13.999Z,16.26
2018-06-04T02:30:13.910Z,16.24
2018-06-04T02:31:13.807Z,16.31
2018-06-04T02:32:13.714Z,16.21
2018-06-04T02:33:13.625Z,16.26
2018-06-04T02:34:13.521Z,16.17
2018-06-04T02:35:13.430Z,16.17
2018-06-04T02:36:13.340Z,16.26
2018-06-04T02:37:13.248Z,16.20
2018-06-04T02:38:13.146Z,16.23
2018-06-04T02:39:13.057Z,16.28
2018-06-04T02:40:12.952Z,16.17
2018-06-04T02:41:12.860Z,16.31
2018-06-04T02:42:13.070Z,16.26
2018-06-04T02:43:12.678Z,16.16
2018-06-04T02:44:12.577Z,16.15
2018-06-04T02:45:12.487Z,16.10
2018-06-04T02:46:12.382Z,16.24
2018-06-04T02:47:12.290Z,16.13
2018-06-04T02:48:12.200Z,16.20
2018-06-04T02:49:12.097Z,16.17
2018-06-04T02:50:12.090Z,16.13
2018-06-04T02:51:11.916Z,16.13
2018-06-04T02:52:12.062Z,16.31
2018-06-04T02:53:11.721Z,16.17
2018-06-04T02:54:11.636Z,16.15
2018-06-04T02:55:11.528Z,16.20
2018-06-04T02:56:11.435Z,16.28
2018-06-04T02:57:11.347Z,16.20
2018-06-04T02:58:11.242Z,16.16
2018-06-04T02:59:11.150Z,16.23
2018-06-04T03:00:11.064Z,16.23
2018-06-04T03:01:10.957Z,16.21
2018-06-04T03:02:10.865Z,16.24
2018-06-04T03:03:10.777Z,16.20
2018-06-04T03:04:10.673Z,16.24
2018-06-04T03:05:10.584Z,16.23
2018-06-04T03:06:10.508Z,16.32
2018-06-04T03:07:10.387Z,16.26
2018-06-04T03:08:10.297Z,16.23
2018-06-04T03:09:10.205Z,16.29
2018-06-04T03:10:10.103Z,16.26
2018-06-04T03:11:10.011Z,16.26
2018-06-04T03:12:10.172Z,16.31
2018-06-04T03:13:09.817Z,16.26
2018-06-04T03:14:09.725Z,16.35
2018-06-04T03:15:09.636Z,16.35
2018-06-04T03:16:09.533Z,16.31
2018-06-04T03:17:09.441Z,16.32
2018-06-04T03:18:09.351Z,16.38
2018-06-04T03:19:09.247Z,16.36
2018-06-04T03:20:09.156Z,16.32
2018-06-04T03:21:09.066Z,16.35
2018-06-04T03:22:08.962Z,16.33
2018-06-04T03:23:08.870Z,16.41
2018-06-04T03:24:08.783Z,16.35
2018-06-04T03:25:08.676Z,16.50
2018-06-04T03:26:08.587Z,16.61
2018-06-04T03:27:08.797Z,16.61
2018-06-04T03:28:08.392Z,16.69
2018-06-04T03:29:08.302Z,16.57
2018-06-04T03:30:08.204Z,16.61
2018-06-04T03:31:08.110Z,16.66
2018-06-04T03:32:08.020Z,16.71
2018-06-04T03:33:07.931Z,16.75
2018-06-04T03:34:07.823Z,16.71
2018-06-04T03:35:07.731Z,16.84
2018-06-04T03:36:07.641Z,16.86
2018-06-04T03:37:07.538Z,16.89
2018-06-04T03:38:07.446Z,16.76
2018-06-04T03:39:07.356Z,16.83
2018-06-04T03:40:07.255Z,16.83
2018-06-04T03:41:07.166Z,16.84
2018-06-04T03:42:07.071Z,16.90
2018-06-04T03:43:06.968Z,16.90
2018-06-04T03:44:06.889Z,16.90
2018-06-04T03:45:06.786Z,16.93
2018-06-04T03:46:06.683Z,16.97
2018-06-04T03:47:06.592Z,17.11
2018-06-04T03:48:06.527Z,17.08
2018-06-04T03:49:06.409Z,17.08
2018-06-04T03:50:06.306Z,17.08
2018-06-04T03:51:06.216Z,17.24
2018-06-04T03:52:06.156Z,17.33
2018-06-04T03:53:06.022Z,17.39
2018-06-04T03:54:05.931Z,17.64
2018-06-04T03:55:05.840Z,17.57
2018-06-04T03:56:05.750Z,17.76
2018-06-04T03:57:05.646Z,17.89
2018-06-04T03:58:05.554Z,18.05
2018-06-04T03:59:05.464Z,18.28
2018-06-04T04:00:05.360Z,18.34
2018-06-04T04:01:05.269Z,18.31
2018-06-04T04:02:05.179Z,18.40
2018-06-04T04:03:05.088Z,18.49
2018-06-04T04:04:04.985Z,18.45
2018-06-04T04:05:04.894Z,18.31
2018-06-04T04:06:04.804Z,18.31
2018-06-04T04:07:04.713Z,18.35
2018-06-04T04:08:04.609Z,18.38
2018-06-04T04:09:04.521Z,18.33
2018-06-04T04:10:04.427Z,18.40
2018-06-04T04:11:04.336Z,18.49
2018-06-04T04:12:04.245Z,18.49
2018-06-04T04:13:04.142Z,18.60
2018-06-04T04:14:04.052Z,18.62
2018-06-04T04:15:03.963Z,18.70
2018-06-04T04:16:03.869Z,18.77
2018-06-04T04:17:03.767Z,18.83
2018-06-04T04:18:03.675Z,19.02
2018-06-04T04:19:03.585Z,19.11
2018-06-04T04:20:03.496Z,19.16
2018-06-04T04:21:03.404Z,19.19
2018-06-04T04:22:03.301Z,19.29
2018-06-04T04:23:03.210Z,19.39
2018-06-04T04:24:03.132Z,19.52
2018-06-04T04:25:03.027Z,19.76
2018-06-04T04:26:02.939Z,20.00
2018-06-04T04:27:03.146Z,20.06
2018-06-04T04:28:02.821Z,20.07
2018-06-04T04:29:02.652Z,20.09
2018-06-04T04:30:02.562Z,20.06
2018-06-04T04:31:02.471Z,20.10
2018-06-04T04:32:02.380Z,20.14
2018-06-04T04:33:02.289Z,20.37
2018-06-04T04:34:02.205Z,20.40
2018-06-04T04:35:02.107Z,20.43
2018-06-04T04:36:02.008Z,20.62
2018-06-04T04:37:01.928Z,20.72
2018-06-04T04:38:01.821Z,21.12
2018-06-04T04:39:01.757Z,21.40
2018-06-04T04:40:01.640Z,21.64
2018-06-04T04:41:01.560Z,21.98
2018-06-04T04:42:01.458Z,22.20
2018-06-04T04:43:01.368Z,22.47
2018-06-04T04:44:01.277Z,22.66
2018-06-04T04:45:01.187Z,22.76
2018-06-04T04:46:01.096Z,22.99
2018-06-04T04:47:01.008Z,23.10
2018-06-04T04:48:00.917Z,23.27
2018-06-04T04:49:00.824Z,23.40
2018-06-04T04:50:00.737Z,23.46
2018-06-04T04:51:00.631Z,23.61
2018-06-04T04:52:00.551Z,23.69
2018-06-04T04:53:00.462Z,23.81
2018-06-04T04:54:00.369Z,23.92
2018-06-04T04:55:00.282Z,24.02
2018-06-04T04:56:00.189Z,24.11
2018-06-04T04:57:00.099Z,24.20
2018-06-04T04:58:00.019Z,24.33
2018-06-04T04:58:59.915Z,24.55
2018-06-04T04:59:59.824Z,24.55
2018-06-04T05:00:59.733Z,24.65
2018-06-04T05:01:59.655Z,24.74
2018-06-04T05:02:59.553Z,24.73
2018-06-04T05:03:59.461Z,24.76
2018-06-04T05:04:59.370Z,25.01
2018-06-04T05:05:59.279Z,24.98
2018-06-04T05:06:59.200Z,25.11
2018-06-04T05:07:59.111Z,25.23
2018-06-04T05:08:59.018Z,25.32
2018-06-04T05:09:58.929Z,25.54
2018-06-04T05:10:58.851Z,25.60
2018-06-04T05:11:58.748Z,25.69
2018-06-04T05:12:58.656Z,25.83
2018-06-04T05:13:58.577Z,26.05
2018-06-04T05:14:58.487Z,26.16
2018-06-04T05:15:58.398Z,26.44
2018-06-04T05:16:58.306Z,26.58
2018-06-04T05:17:58.214Z,26.74
2018-06-04T05:18:58.129Z,26.83
2018-06-04T05:19:58.046Z,26.83
2018-06-04T05:20:57.953Z,26.70
2018-06-04T05:21:57.865Z,26.78
2018-06-04T05:22:57.772Z,26.96
2018-06-04T05:23:57.707Z,26.92
2018-06-04T05:24:57.607Z,27.18
2018-06-04T05:25:57.517Z,27.32
2018-06-04T05:26:57.422Z,27.30
2018-06-04T05:27:57.344Z,27.37
2018-06-04T05:28:57.255Z,27.48
2018-06-04T05:29:57.162Z,27.67
2018-06-04T05:30:57.072Z,27.95
2018-06-04T05:31:56.994Z,27.96
2018-06-04T05:32:56.903Z,27.92
2018-06-04T05:33:56.811Z,27.92
2018-06-04T05:34:56.733Z,27.83
2018-06-04T05:35:56.643Z,27.78
2018-06-04T05:36:56.553Z,27.98
2018-06-04T05:37:56.473Z,28.11
2018-06-04T05:38:56.383Z,28.17
2018-06-04T05:39:56.291Z,28.27
2018-06-04T05:40:56.213Z,28.32
2018-06-04T05:41:56.125Z,28.29
2018-06-04T05:42:56.031Z,28.33
2018-06-04T05:43:55.953Z,28.38
2018-06-04T05:44:55.863Z,28.51
2018-06-04T05:45:55.773Z,28.64
2018-06-04T05:46:55.693Z,28.67
2018-06-04T05:47:55.605Z,28.72
2018-06-04T05:48:55.527Z,28.84
2018-06-04T05:49:55.438Z,29.07
2018-06-04T05:50:55.343Z,29.16
2018-06-04T05:51:55.266Z,28.89
2018-06-04T05:52:55.173Z,28.88
2018-06-04T05:53:55.095Z,28.14
2018-06-04T05:54:55.006Z,27.51
2018-06-04T05:55:54.966Z,27.22
2018-06-04T05:56:54.835Z,27.21
2018-06-04T05:57:54.745Z,27.64
2018-06-04T05:58:54.667Z,27.85
2018-06-04T05:59:54.576Z,28.20
2018-06-04T06:00:54.497Z,28.51
2018-06-04T06:01:54.407Z,28.72
2018-06-04T06:02:54.331Z,28.89
2018-06-04T06:03:54.237Z,29.10
2018-06-04T06:04:54.162Z,28.79
2018-06-04T06:05:54.070Z,28.84
2018-06-04T06:06:53.990Z,28.78
2018-06-04T06:07:53.898Z,28.79
2018-06-04T06:08:53.821Z,28.49
2018-06-04T06:09:53.730Z,28.44
2018-06-04T06:10:53.651Z,28.38
2018-06-04T06:11:53.562Z,28.33
2018-06-04T06:12:53.482Z,28.29
2018-06-04T06:13:53.392Z,28.63
2018-06-04T06:14:53.322Z,28.76
2018-06-04T06:15:53.221Z,28.69
2018-06-04T06:16:53.144Z,28.47
2018-06-04T06:17:53.053Z,28.35
2018-06-04T06:18:52.976Z,28.10
2018-06-04T06:19:52.935Z,28.38
2018-06-04T06:20:52.805Z,28.49
2018-06-04T06:21:52.715Z,28.82
2018-06-04T06:22:52.636Z,28.94
2018-06-04T06:23:52.548Z,28.91
2018-06-04T06:24:52.468Z,29.17
2018-06-04T06:25:52.389Z,29.50
2018-06-04T06:26:52.299Z,29.20
2018-06-04T06:27:52.220Z,28.93
2018-06-04T06:28:52.128Z,28.91
2018-06-04T06:29:52.051Z,28.64
2018-06-04T06:30:52.014Z,28.76
2018-06-04T06:31:51.883Z,28.79
2018-06-04T06:32:51.803Z,28.91
2018-06-04T06:33:51.712Z,28.84
2018-06-04T06:34:51.634Z,28.75
2018-06-04T06:35:51.544Z,28.37
2018-06-04T06:36:51.466Z,28.85
2018-06-04T06:37:51.378Z,28.86
2018-06-04T06:38:51.296Z,28.85
2018-06-04T06:39:51.217Z,28.89
2018-06-04T06:40:51.128Z,28.96
2018-06-04T06:41:51.049Z,29.31
2018-06-04T06:42:50.958Z,29.51
2018-06-04T06:43:50.879Z,29.81
2018-06-04T06:44:50.806Z,30.05
2018-06-04T06:45:50.711Z,29.97
2018-06-04T06:46:50.883Z,30.03
2018-06-04T06:47:50.541Z,29.98
2018-06-04T06:48:50.489Z,30.21
2018-06-04T06:49:50.400Z,30.03
2018-06-04T06:50:50.295Z,30.15
2018-06-04T06:51:50.217Z,30.09
2018-06-04T06:52:50.137Z,30.40
2018-06-04T06:53:50.045Z,30.32
2018-06-04T06:54:49.969Z,30.24
2018-06-04T06:55:49.889Z,30.21
2018-06-04T06:56:49.799Z,30.15
2018-06-04T06:57:49.721Z,30.05
2018-06-04T06:58:49.630Z,30.18
2018-06-04T06:59:49.551Z,30.32
2018-06-04T07:00:49.473Z,30.59
2018-06-04T07:01:49.384Z,30.59
2018-06-04T07:02:49.305Z,29.73
2018-06-04T07:03:49.226Z,30.08
2018-06-04T07:04:49.136Z,30.35
2018-06-04T07:05:49.056Z,30.06
2018-06-04T07:06:48.978Z,29.91
2018-06-04T07:07:48.905Z,30.37
2018-06-04T07:08:48.810Z,30.63
2018-06-04T07:09:48.730Z,30.32
2018-06-04T07:10:48.653Z,30.08
2018-06-04T07:11:48.561Z,29.95
2018-06-04T07:12:48.483Z,29.72
2018-06-04T07:13:48.405Z,29.47
2018-06-04T07:14:48.315Z,29.51
2018-06-04T07:15:48.236Z,30.09
2018-06-04T07:16:48.159Z,30.32
2018-06-04T07:17:48.084Z,30.15
2018-06-04T07:18:47.988Z,30.18
2018-06-04T07:19:47.909Z,30.69
2018-06-04T07:20:47.831Z,30.18
2018-06-04T07:21:47.761Z,30.44
2018-06-04T07:22:47.663Z,30.32
2018-06-04T07:23:47.585Z,30.34
2018-06-04T07:24:47.506Z,30.66
2018-06-04T07:25:47.428Z,30.62
2018-06-04T07:26:47.379Z,30.97
2018-06-04T07:27:47.259Z,30.97
2018-06-04T07:28:47.180Z,30.90
2018-06-04T07:29:47.101Z,31.09
2018-06-04T07:30:47.011Z,30.96
2018-06-04T07:31:46.933Z,30.97
2018-06-04T07:32:46.854Z,30.81
2018-06-04T07:33:46.777Z,30.96
2018-06-04T07:34:46.691Z,31.07
2018-06-04T07:35:46.607Z,30.62
2018-06-04T07:36:46.533Z,30.77
2018-06-04T07:37:46.450Z,30.91
2018-06-04T07:38:46.373Z,30.35
2018-06-04T07:39:46.283Z,30.12
2018-06-04T07:40:46.203Z,29.84
2018-06-04T07:41:46.125Z,30.15
2018-06-04T07:42:46.048Z,30.30
2018-06-04T07:43:45.956Z,30.63
2018-06-04T07:44:45.877Z,30.80
2018-06-04T07:45:45.798Z,30.97
2018-06-04T07:46:45.720Z,30.92
2018-06-04T07:47:45.642Z,30.87
2018-06-04T07:48:45.555Z,31.06
2018-06-04T07:49:45.498Z,31.09
2018-06-04T07:50:45.401Z,31.07
2018-06-04T07:51:45.317Z,31.20
2018-06-04T07:52:45.239Z,30.81
2018-06-04T07:53:45.148Z,30.77
2018-06-04T07:54:45.071Z,30.61
2018-06-04T07:55:44.990Z,30.62
2018-06-04T07:56:44.912Z,30.83
2018-06-04T07:57:44.833Z,30.69
2018-06-04T07:58:44.755Z,30.25
2018-06-04T07:59:44.676Z,30.31
2018-06-04T08:00:44.589Z,30.44
2018-06-04T08:01:44.510Z,30.66
2018-06-04T08:02:44.430Z,30.78
2018-06-04T08:03:44.353Z,30.47
2018-06-04T08:04:44.274Z,29.32
2018-06-04T08:05:44.182Z,28.78
2018-06-04T08:06:44.104Z,29.10
2018-06-04T08:07:44.026Z,29.72
2018-06-04T08:08:43.947Z,30.12
2018-06-04T08:09:43.859Z,29.73
2018-06-04T08:10:43.779Z,30.05
2018-06-04T08:11:43.701Z,29.87
2018-06-04T08:12:43.626Z,30.21
2018-06-04T08:13:43.531Z,30.46
2018-06-04T08:14:43.453Z,30.54
2018-06-04T08:15:43.374Z,30.30
2018-06-04T08:16:43.308Z,30.88
2018-06-04T08:17:43.206Z,30.83
2018-06-04T08:18:43.128Z,31.21
2018-06-04T08:19:43.049Z,30.84
2018-06-04T08:20:42.960Z,30.69
2018-06-04T08:21:42.880Z,30.61
2018-06-04T08:22:42.801Z,29.81
2018-06-04T08:23:42.712Z,29.90
2018-06-04T08:24:42.635Z,30.09
2018-06-04T08:25:42.545Z,30.54
2018-06-04T08:26:42.463Z,31.09
2018-06-04T08:27:42.372Z,31.44
2018-06-04T08:28:42.295Z,31.73
2018-06-04T08:29:42.204Z,31.96
2018-06-04T08:30:42.126Z,32.01
2018-06-04T08:31:42.046Z,31.46
2018-06-04T08:32:41.956Z,32.12
2018-06-04T08:33:41.866Z,32.46
2018-06-04T08:34:41.793Z,32.65
2018-06-04T08:35:41.708Z,32.86
2018-06-04T08:36:41.618Z,32.92
2018-06-04T08:37:41.540Z,32.64
2018-06-04T08:38:41.447Z,32.56
2018-06-04T08:39:41.370Z,32.30
2018-06-04T08:40:41.281Z,31.42
2018-06-04T08:41:41.202Z,30.00
2018-06-04T08:42:41.110Z,28.60
2018-06-04T08:43:41.032Z,28.11
2018-06-04T08:44:40.953Z,27.71
2018-06-04T08:45:40.902Z,28.23
2018-06-04T08:46:40.785Z,29.14
2018-06-04T08:47:40.695Z,30.10
2018-06-04T08:48:40.616Z,30.66
2018-06-04T08:49:40.540Z,30.96
2018-06-04T08:50:40.446Z,30.92
2018-06-04T08:51:40.369Z,31.07
2018-06-04T08:52:40.289Z,31.29
2018-06-04T08:53:40.200Z,31.55
2018-06-04T08:54:40.121Z,29.60
2018-06-04T08:55:40.042Z,29.36
2018-06-04T08:56:39.952Z,29.35
2018-06-04T08:57:39.874Z,29.78
2018-06-04T08:58:39.796Z,29.23
2018-06-04T08:59:39.703Z,28.07
2018-06-04T09:00:39.626Z,28.12
2018-06-04T09:01:39.547Z,29.12
2018-06-04T09:02:39.458Z,28.88
2018-06-04T09:03:39.378Z,28.76
2018-06-04T09:04:39.300Z,29.49
2018-06-04T09:05:39.212Z,29.32
2018-06-04T09:06:39.130Z,29.20
2018-06-04T09:07:39.052Z,28.76
2018-06-04T09:08:38.962Z,28.32
2018-06-04T09:09:38.883Z,28.19
2018-06-04T09:10:38.805Z,28.10
2018-06-04T09:11:38.714Z,28.15
2018-06-04T09:12:38.635Z,28.11
2018-06-04T09:13:38.549Z,28.04
2018-06-04T09:14:38.467Z,27.71
2018-06-04T09:15:38.394Z,27.35
2018-06-04T09:16:38.313Z,27.36
2018-06-04T09:17:38.219Z,27.39
2018-06-04T09:18:38.129Z,27.30
2018-06-04T09:19:38.050Z,28.72
2018-06-04T09:20:37.961Z,29.50
2018-06-04T09:21:37.887Z,30.31
2018-06-04T09:22:37.791Z,29.88
2018-06-04T09:23:37.717Z,30.73
2018-06-04T09:24:37.634Z,31.34
2018-06-04T09:25:37.544Z,31.77
2018-06-04T09:26:37.464Z,32.12
2018-06-04T09:27:37.374Z,32.46
2018-06-04T09:28:37.296Z,32.53
2018-06-04T09:29:37.217Z,32.48
2018-06-04T09:30:37.125Z,32.15
2018-06-04T09:31:37.048Z,32.07
2018-06-04T09:32:36.969Z,32.55
2018-06-04T09:33:36.929Z,32.52
2018-06-04T09:34:36.800Z,32.56
2018-06-04T09:35:36.722Z,31.06
2018-06-04T09:36:36.645Z,30.32
2018-06-04T09:37:36.579Z,31.28
2018-06-04T09:38:36.476Z,31.73
2018-06-04T09:39:36.415Z,32.56
2018-06-04T09:40:36.329Z,32.68
2018-06-04T09:41:36.241Z,33.47
2018-06-04T09:42:36.161Z,34.27
2018-06-04T09:43:36.082Z,34.70
2018-06-04T09:44:36.004Z,34.96
2018-06-04T09:45:35.926Z,35.11
2018-06-04T09:46:35.836Z,33.17
2018-06-04T09:47:35.812Z,32.23
2018-06-04T09:48:35.680Z,31.92
2018-06-04T09:49:35.604Z,33.12
2018-06-04T09:50:35.526Z,33.61
2018-06-04T09:51:35.444Z,34.38
2018-06-04T09:52:35.371Z,34.89
2018-06-04T09:53:35.287Z,35.22
2018-06-04T09:54:35.210Z,34.78
2018-06-04T09:55:35.131Z,34.01
2018-06-04T09:56:35.069Z,33.30
2018-06-04T09:57:34.975Z,32.29
2018-06-04T09:58:34.896Z,31.55
2018-06-04T09:59:34.819Z,30.84
2018-06-04T10:00:34.740Z,30.05
2018-06-04T10:01:34.649Z,29.86
2018-06-04T10:02:34.569Z,29.56
2018-06-04T10:03:34.496Z,29.19
2018-06-04T10:04:34.413Z,29.19
2018-06-04T10:05:34.347Z,29.32
2018-06-04T10:06:34.256Z,29.49
2018-06-04T10:07:34.179Z,29.47
2018-06-04T10:08:34.096Z,29.78
2018-06-04T10:09:34.010Z,29.61
2018-06-04T10:10:33.931Z,29.59
2018-06-04T10:11:33.854Z,29.61
2018-06-04T10:12:33.761Z,29.72
2018-06-04T10:13:33.678Z,29.10
2018-06-04T10:14:33.596Z,28.88
2018-06-04T10:15:33.514Z,28.81
2018-06-04T10:16:33.437Z,28.75
2018-06-04T10:17:33.359Z,28.72
2018-06-04T10:18:33.280Z,28.56
2018-06-04T10:19:33.189Z,28.81
2018-06-04T10:20:33.111Z,28.89
2018-06-04T10:21:33.021Z,28.94
2018-06-04T10:22:32.975Z,29.12
2018-06-04T10:23:32.864Z,29.29
2018-06-04T10:24:32.772Z,29.57
2018-06-04T10:25:32.693Z,29.81
2018-06-04T10:26:32.615Z,29.41
2018-06-04T10:27:32.524Z,29.24
2018-06-04T10:28:32.447Z,29.56
2018-06-04T10:29:32.357Z,29.57
2018-06-04T10:30:32.281Z,29.68
2018-06-04T10:31:32.199Z,29.59
2018-06-04T10:32:32.109Z,30.65
2018-06-04T10:33:32.071Z,31.66
2018-06-04T10:34:31.952Z,32.09
2018-06-04T10:35:31.873Z,32.33
2018-06-04T10:36:31.783Z,32.82
2018-06-04T10:37:31.704Z,33.22
2018-06-04T10:38:31.638Z,33.23
2018-06-04T10:39:31.536Z,33.39
2018-06-04T10:40:31.461Z,33.74
2018-06-04T10:41:31.379Z,33.27
2018-06-04T10:42:31.301Z,33.53
2018-06-04T10:43:31.223Z,33.79
2018-06-04T10:44:31.143Z,33.62
2018-06-04T10:45:31.067Z,33.04
2018-06-04T10:46:30.995Z,32.78
2018-06-04T10:47:30.909Z,32.52
2018-06-04T10:48:30.831Z,31.74
2018-06-04T10:49:30.752Z,31.43
2018-06-04T10:50:30.674Z,30.85
2018-06-04T10:51:30.586Z,30.31
2018-06-04T10:52:30.505Z,29.86
2018-06-04T10:53:30.425Z,29.60
2018-06-04T10:54:30.347Z,29.32
2018-06-04T10:55:30.270Z,29.19
2018-06-04T10:56:30.192Z,28.97
2018-06-04T10:57:30.151Z,29.07
2018-06-04T10:58:30.034Z,29.13
2018-06-04T10:59:29.968Z,29.27
2018-06-04T11:00:29.866Z,29.42
2018-06-04T11:01:29.789Z,30.50
2018-06-04T11:02:29.709Z,30.80
2018-06-04T11:03:29.631Z,30.39
2018-06-04T11:04:29.540Z,30.05
2018-06-04T11:05:29.460Z,29.95
2018-06-04T11:06:29.383Z,29.98
2018-06-04T11:07:29.304Z,29.34
2018-06-04T11:08:29.215Z,29.20
2018-06-04T11:09:29.136Z,29.45
2018-06-04T11:10:29.058Z,30.25
2018-06-04T11:11:28.980Z,29.97
2018-06-04T11:12:28.887Z,29.72
2018-06-04T11:13:28.809Z,29.51
2018-06-04T11:14:28.731Z,29.32
2018-06-04T11:15:28.642Z,29.44
2018-06-04T11:16:28.563Z,29.34
2018-06-04T11:17:28.485Z,29.22
2018-06-04T11:18:28.406Z,29.01
2018-06-04T11:19:28.316Z,28.88
2018-06-04T11:20:28.236Z,29.16
2018-06-04T11:21:28.158Z,29.27
2018-06-04T11:22:28.068Z,29.59
2018-06-04T11:23:27.989Z,29.69
2018-06-04T11:24:27.913Z,30.10
2018-06-04T11:25:27.820Z,30.05
2018-06-04T11:26:27.742Z,29.98
2018-06-04T11:27:27.651Z,29.81
2018-06-04T11:28:27.573Z,29.71
2018-06-04T11:29:27.494Z,29.53
2018-06-04T11:30:27.413Z,29.73
2018-06-04T11:31:27.325Z,29.88
2018-06-04T11:32:27.249Z,29.49
2018-06-04T11:33:27.158Z,29.13
2018-06-04T11:34:27.278Z,29.07
2018-06-04T11:35:26.988Z,28.97
2018-06-04T11:36:26.912Z,28.96
2018-06-04T11:37:26.841Z,28.85
2018-06-04T11:38:26.740Z,28.91
2018-06-04T11:39:26.665Z,29.87
2018-06-04T11:40:26.570Z,30.31
2018-06-04T11:41:26.491Z,30.34
2018-06-04T11:42:26.415Z,29.65
2018-06-04T11:43:26.324Z,29.45
2018-06-04T11:44:26.250Z,30.44
2018-06-04T11:45:26.154Z,30.80
2018-06-04T11:46:26.075Z,31.55
2018-06-04T11:47:25.997Z,31.55
2018-06-04T11:48:25.919Z,31.37
2018-06-04T11:49:25.830Z,31.49
2018-06-04T11:50:25.751Z,31.44
2018-06-04T11:51:25.661Z,31.51
2018-06-04T11:52:25.581Z,31.07
2018-06-04T11:53:25.502Z,30.69
2018-06-04T11:54:25.443Z,30.61
2018-06-04T11:55:25.358Z,30.81
2018-06-04T11:56:25.290Z,30.53
2018-06-04T11:57:25.176Z,30.50
2018-06-04T11:58:25.100Z,30.94
2018-06-04T11:59:25.020Z,30.46
2018-06-04T12:00:24.947Z,30.69
2018-06-04T12:01:24.850Z,29.93
2018-06-04T12:02:24.772Z,29.90
2018-06-04T12:03:24.693Z,30.30
2018-06-04T12:04:24.618Z,30.44
2018-06-04T12:05:24.537Z,30.30
2018-06-04T12:06:24.454Z,30.12
2018-06-04T12:07:24.369Z,29.98
2018-06-04T12:08:24.290Z,29.94
2018-06-04T12:09:24.213Z,29.59
2018-06-04T12:10:24.133Z,29.60
2018-06-04T12:11:24.074Z,29.35
2018-06-04T12:12:23.963Z,29.16
2018-06-04T12:13:23.885Z,29.12
2018-06-04T12:14:23.807Z,29.07
2018-06-04T12:15:23.728Z,28.89
2018-06-04T12:16:23.639Z,29.29
2018-06-04T12:17:23.569Z,29.47
2018-06-04T12:18:23.483Z,29.61
2018-06-04T12:19:23.406Z,29.42
2018-06-04T12:20:23.312Z,29.53
2018-06-04T12:21:23.253Z,29.57
2018-06-04T12:22:23.155Z,29.39
2018-06-04T12:23:23.077Z,29.24
2018-06-04T12:24:22.987Z,29.41
2018-06-04T12:25:22.908Z,29.53
2018-06-04T12:26:22.832Z,29.31
2018-06-04T12:27:22.739Z,29.14
2018-06-04T12:28:22.661Z,29.07
2018-06-04T12:29:22.582Z,28.93
2018-06-04T12:30:22.492Z,28.74
2018-06-04T12:31:22.414Z,28.72
2018-06-04T12:32:22.335Z,28.66
2018-06-04T12:33:22.245Z,28.45
2018-06-04T12:34:22.168Z,28.25
2018-06-04T12:35:22.076Z,28.14
2018-06-04T12:36:21.998Z,28.12
2018-06-04T12:37:21.907Z,28.11
2018-06-04T12:38:21.828Z,28.07
2018-06-04T12:39:21.749Z,27.73
2018-06-04T12:40:21.659Z,28.01
2018-06-04T12:41:21.581Z,28.10
2018-06-04T12:42:21.489Z,27.85
2018-06-04T12:43:21.410Z,27.95
2018-06-04T12:44:21.321Z,27.98
2018-06-04T12:45:21.242Z,27.93
2018-06-04T12:46:21.151Z,27.96
2018-06-04T12:47:21.073Z,27.89
2018-06-04T12:48:20.984Z,27.74
2018-06-04T12:49:20.904Z,27.71
2018-06-04T12:50:20.813Z,27.68
2018-06-04T12:51:20.724Z,27.85